Wetterdaten: Woche 08.06.15 - 14.06.15 (KW24)
Datum Zeit Temp. I. Temp. A. Feuchte I. Feuchte A. Luftdruck Regen Wind Richtung Taupunkt Windchill
08.06.2015 00:00 23,3 °C 10,3 °C 52 % 81 % 1026,1 hPa 0,0 l/m² 1,3 km/h (1 Bft) W-NW 7,1 °C 10,3 °C
08.06.2015 01:00 23,2 °C 10,1 °C 52 % 81 % 1026,3 hPa 0,0 l/m² 3,0 km/h (1 Bft) N-NO 7,1 °C 10,0 °C
08.06.2015 02:00 23,0 °C 10,9 °C 52 % 79 % 1026,6 hPa 0,0 l/m² 5,8 km/h (2 Bft) N-NW 7,5 °C 10,3 °C
08.06.2015 03:00 23,0 °C 11,1 °C 52 % 78 % 1026,8 hPa 0,0 l/m² 8,1 km/h (2 Bft) N 7,4 °C 9,6 °C
08.06.2015 04:00 22,9 °C 10,7 °C 51 % 76 % 1027,1 hPa 0,0 l/m² 8,5 km/h (2 Bft) N-NW 6,6 °C 9,1 °C
08.06.2015 05:00 22,8 °C 10,1 °C 51 % 75 % 1027,3 hPa 0,0 l/m² 9,3 km/h (2 Bft) N-NW 5,8 °C 8,0 °C
08.06.2015 06:00 22,7 °C 10,5 °C 50 % 75 % 1027,5 hPa 0,0 l/m² 5,0 km/h (1 Bft) NW 6,3 °C 10,1 °C
08.06.2015 07:00 22,5 °C 12,4 °C 48 % 73 % 1027,2 hPa 0,0 l/m² 9,6 km/h (2 Bft) N-NO 7,7 °C 10,5 °C
08.06.2015 08:00 22,6 °C 13,6 °C 49 % 71 % 1027,1 hPa 0,0 l/m² 11,7 km/h (2 Bft) N 8,4 °C 11,0 °C
08.06.2015 09:00 22,6 °C 15,9 °C 49 % 65 % 1027,0 hPa 0,0 l/m² 11,5 km/h (2 Bft) N 9,3 °C 13,7 °C
08.06.2015 10:00 22,8 °C 16,9 °C 50 % 62 % 1027,1 hPa 0,0 l/m² 13,3 km/h (3 Bft) N 9,5 °C 14,2 °C
08.06.2015 11:00 22,8 °C 17,9 °C 50 % 58 % 1026,8 hPa 0,0 l/m² 13,7 km/h (3 Bft) N-NW 9,6 °C 15,3 °C
08.06.2015 12:00 23,0 °C 18,4 °C 50 % 56 % 1026,5 hPa 0,0 l/m² 15,9 km/h (3 Bft) N 9,4 °C 15,3 °C
08.06.2015 13:00 23,0 °C 19,4 °C 50 % 52 % 1026,2 hPa 0,0 l/m² 13,1 km/h (3 Bft) N 9,3 °C 17,2 °C
08.06.2015 14:00 23,0 °C 20,1 °C 50 % 49 % 1025,5 hPa 0,0 l/m² 12,3 km/h (2 Bft) N-NO 9,1 °C 18,3 °C
08.06.2015 15:00 23,0 °C 18,9 °C 50 % 50 % 1024,6 hPa 0,0 l/m² 14,1 km/h (3 Bft) N 8,2 °C 16,3 °C
08.06.2015 16:00 22,8 °C 18,2 °C 50 % 50 % 1024,7 hPa 0,0 l/m² 10,4 km/h (2 Bft) N 7,6 °C 16,5 °C
08.06.2015 17:00 22,9 °C 18,0 °C 51 % 50 % 1024,5 hPa 0,0 l/m² 11,8 km/h (2 Bft) N-NW 7,4 °C 16,0 °C
08.06.2015 18:00 23,0 °C 18,0 °C 51 % 50 % 1024,2 hPa 0,0 l/m² 11,5 km/h (2 Bft) N 7,5 °C 16,0 °C
08.06.2015 19:00 23,0 °C 17,5 °C 52 % 51 % 1024,4 hPa 0,0 l/m² 10,1 km/h (2 Bft) N-NW 7,2 °C 15,9 °C
08.06.2015 20:00 23,0 °C 16,7 °C 52 % 52 % 1024,6 hPa 0,0 l/m² 9,9 km/h (2 Bft) N 6,7 °C 15,1 °C
08.06.2015 21:00 23,2 °C 15,9 °C 52 % 54 % 1025,0 hPa 0,0 l/m² 12,1 km/h (2 Bft) N-NO 6,6 °C 13,5 °C
08.06.2015 22:00 23,3 °C 15,0 °C 51 % 57 % 1025,2 hPa 0,0 l/m² 11,2 km/h (2 Bft) N-NO 6,5 °C 12,7 °C
08.06.2015 23:00 23,0 °C 14,3 °C 51 % 59 % 1025,5 hPa 0,0 l/m² 8,7 km/h (2 Bft) N 6,5 °C 13,1 °C
09.06.2015 00:00 22,8 °C 14,2 °C 51 % 61 % 1025,5 hPa 0,0 l/m² 5,7 km/h (2 Bft) N-NO 6,7 °C 13,6 °C
09.06.2015 01:00 22,6 °C 13,7 °C 51 % 62 % 1025,5 hPa 0,0 l/m² 5,0 km/h (1 Bft) N-NO 6,5 °C 13,2 °C
09.06.2015 02:00 22,6 °C 12,5 °C 52 % 66 % 1025,6 hPa 0,0 l/m² 3,5 km/h (1 Bft) N 6,3 °C 12,4 °C
09.06.2015 03:00 22,5 °C 11,6 °C 52 % 70 % 1025,7 hPa 0,0 l/m² 2,0 km/h (1 Bft) N-NW 6,2 °C 11,6 °C
09.06.2015 04:00 22,4 °C 11,6 °C 52 % 71 % 1025,8 hPa 0,0 l/m² 4,7 km/h (1 Bft) N 6,6 °C 11,2 °C
09.06.2015 05:00 22,3 °C 10,4 °C 52 % 74 % 1026,0 hPa 0,0 l/m² 4,8 km/h (1 Bft) N-NW 5,9 °C 10,3 °C
09.06.2015 06:00 22,3 °C 9,7 °C 51 % 76 % 1026,5 hPa 0,0 l/m² 5,3 km/h (1 Bft) N 5,7 °C 9,1 °C
09.06.2015 07:00 22,1 °C 10,4 °C 50 % 76 % 1026,5 hPa 0,0 l/m² 8,8 km/h (2 Bft) N-NO 6,4 °C 8,7 °C
09.06.2015 08:00 22,2 °C 13,6 °C 50 % 69 % 1026,7 hPa 0,0 l/m² 9,6 km/h (2 Bft) NO 7,9 °C 11,8 °C
09.06.2015 09:00 22,3 °C 15,9 °C 50 % 58 % 1026,7 hPa 0,0 l/m² 9,1 km/h (2 Bft) O-NO 7,7 °C 14,4 °C
09.06.2015 10:00 22,3 °C 15,6 °C 50 % 57 % 1026,7 hPa 0,0 l/m² 8,8 km/h (2 Bft) O-NO 7,2 °C 14,1 °C
09.06.2015 11:00 22,3 °C 17,0 °C 51 % 54 % 1026,6 hPa 0,0 l/m² 8,3 km/h (2 Bft) NO 7,6 °C 15,8 °C
09.06.2015 12:00 22,4 °C 17,8 °C 50 % 50 % 1026,3 hPa 0,0 l/m² 8,6 km/h (2 Bft) N-NO 7,2 °C 16,8 °C
09.06.2015 13:00 22,6 °C 19,1 °C 50 % 46 % 1026,0 hPa 0,0 l/m² 9,6 km/h (2 Bft) N 7,2 °C 17,8 °C
09.06.2015 14:00 22,8 °C 19,6 °C 50 % 44 % 1025,9 hPa 0,0 l/m² 7,6 km/h (2 Bft) NO 7,0 °C 18,9 °C
09.06.2015 15:00 22,7 °C 19,7 °C 50 % 43 % 1025,8 hPa 0,0 l/m² 8,4 km/h (2 Bft) N 6,9 °C 18,7 °C
09.06.2015 16:00 22,7 °C 20,2 °C 49 % 43 % 1025,5 hPa 0,0 l/m² 7,5 km/h (2 Bft) NO 7,1 °C 19,5 °C
09.06.2015 17:00 22,6 °C 19,9 °C 49 % 44 % 1025,2 hPa 0,0 l/m² 9,6 km/h (2 Bft) O 7,2 °C 18,7 °C
09.06.2015 18:00 22,6 °C 19,2 °C 50 % 49 % 1025,1 hPa 0,0 l/m² 8,9 km/h (2 Bft) O-SO 8,1 °C 18,2 °C
09.06.2015 19:00 22,7 °C 17,2 °C 51 % 56 % 1025,4 hPa 0,0 l/m² 10,4 km/h (2 Bft) O-SO 8,3 °C 15,4 °C
09.06.2015 20:00 22,6 °C 16,1 °C 51 % 62 % 1025,9 hPa 0,0 l/m² 11,0 km/h (2 Bft) O-SO 8,9 °C 14,1 °C
09.06.2015 21:00 22,7 °C 15,2 °C 51 % 66 % 1026,5 hPa 0,0 l/m² 4,4 km/h (1 Bft) O-SO 9,0 °C 14,9 °C
09.06.2015 22:00 23,0 °C 14,1 °C 51 % 71 % 1026,8 hPa 0,0 l/m² 3,1 km/h (1 Bft) O-NO 8,9 °C 14,1 °C
09.06.2015 23:00 22,8 °C 13,6 °C 51 % 73 % 1027,0 hPa 0,0 l/m² 1,1 km/h (1 Bft) O-NO 8,8 °C 13,6 °C
10.06.2015 00:00 22,6 °C 13,3 °C 51 % 74 % 1027,1 hPa 0,0 l/m² 0,6 km/h (0 Bft) NO 8,9 °C 13,3 °C
10.06.2015 01:00 22,4 °C 12,8 °C 52 % 76 % 1026,9 hPa 0,0 l/m² 0,2 km/h (0 Bft) O-NO 8,6 °C 12,8 °C
10.06.2015 02:00 22,3 °C 12,5 °C 52 % 78 % 1026,9 hPa 0,0 l/m² 0,6 km/h (0 Bft) S-SO 8,7 °C 12,5 °C
10.06.2015 03:00 22,3 °C 12,3 °C 52 % 80 % 1026,7 hPa 0,0 l/m² 1,0 km/h (0 Bft) O-NO 9,0 °C 12,3 °C
10.06.2015 04:00 22,2 °C 12,5 °C 52 % 80 % 1026,7 hPa 0,0 l/m² 1,8 km/h (1 Bft) NO 9,2 °C 12,5 °C
10.06.2015 05:00 22,2 °C 12,6 °C 52 % 80 % 1026,6 hPa 0,0 l/m² 2,1 km/h (1 Bft) O-NO 9,3 °C 12,6 °C
10.06.2015 06:00 22,1 °C 13,1 °C 52 % 81 % 1026,6 hPa 0,0 l/m² 2,5 km/h (1 Bft) O-SO 9,9 °C 13,1 °C
10.06.2015 07:00 22,1 °C 14,3 °C 52 % 80 % 1026,8 hPa 0,0 l/m² 4,0 km/h (1 Bft) O-NO 10,9 °C 14,2 °C
10.06.2015 08:00 22,1 °C 16,3 °C 52 % 73 % 1026,8 hPa 0,0 l/m² 6,5 km/h (2 Bft) O-NO 11,4 °C 15,8 °C
10.06.2015 09:00 22,2 °C 17,6 °C 52 % 66 % 1026,8 hPa 0,0 l/m² 7,9 km/h (2 Bft) NO 11,1 °C 16,6 °C
10.06.2015 10:00 22,2 °C 19,3 °C 51 % 59 % 1026,7 hPa 0,0 l/m² 8,9 km/h (2 Bft) O-SO 11,2 °C 18,2 °C
10.06.2015 11:00 22,3 °C 20,2 °C 50 % 53 % 1026,5 hPa 0,0 l/m² 9,4 km/h (2 Bft) O-NO 10,3 °C 19,0 °C
10.06.2015 12:00 22,5 °C 20,9 °C 51 % 50 % 1026,2 hPa 0,0 l/m² 10,4 km/h (2 Bft) O-NO 10,0 °C 19,6 °C
10.06.2015 13:00 22,5 °C 21,5 °C 50 % 47 % 1025,7 hPa 0,0 l/m² 9,5 km/h (2 Bft) O-NO 9,7 °C 20,4 °C
10.06.2015 14:00 22,6 °C 23,0 °C 49 % 43 % 1025,3 hPa 0,0 l/m² 10,5 km/h (2 Bft) O 9,7 °C 21,8 °C
10.06.2015 15:00 22,7 °C 23,5 °C 49 % 41 % 1024,8 hPa 0,0 l/m² 9,9 km/h (2 Bft) O-NO 9,6 °C 22,6 °C
10.06.2015 16:00 22,6 °C 22,4 °C 49 % 44 % 1024,3 hPa 0,0 l/m² 8,8 km/h (2 Bft) N-NO 9,5 °C 21,7 °C
10.06.2015 17:00 22,6 °C 22,1 °C 48 % 44 % 1024,0 hPa 0,0 l/m² 9,3 km/h (2 Bft) NO 9,4 °C 21,1 °C
10.06.2015 18:00 22,6 °C 22,4 °C 48 % 44 % 1023,5 hPa 0,0 l/m² 7,9 km/h (2 Bft) N-NO 9,4 °C 21,8 °C
10.06.2015 19:00 22,7 °C 21,4 °C 49 % 45 % 1023,2 hPa 0,0 l/m² 6,7 km/h (2 Bft) NO 8,9 °C 20,8 °C
10.06.2015 20:00 22,7 °C 19,9 °C 49 % 49 % 1023,1 hPa 0,0 l/m² 3,7 km/h (1 Bft) N-NO 8,9 °C 19,8 °C
10.06.2015 21:00 22,9 °C 18,0 °C 49 % 52 % 1023,3 hPa 0,0 l/m² 3,6 km/h (1 Bft) N-NO 8,1 °C 17,9 °C
10.06.2015 22:00 23,1 °C 16,9 °C 49 % 55 % 1023,8 hPa 0,0 l/m² 3,6 km/h (1 Bft) N-NO 7,9 °C 16,9 °C
10.06.2015 23:00 22,9 °C 16,4 °C 49 % 58 % 1023,9 hPa 0,0 l/m² 2,4 km/h (1 Bft) N-NO 8,1 °C 16,4 °C
11.06.2015 00:00 22,6 °C 15,4 °C 49 % 64 % 1023,9 hPa 0,0 l/m² 0,7 km/h (0 Bft) O 8,6 °C 15,4 °C
11.06.2015 01:00 22,5 °C 14,6 °C 49 % 69 % 1023,7 hPa 0,0 l/m² 0,6 km/h (0 Bft) W-SW 8,9 °C 14,6 °C
11.06.2015 02:00 22,4 °C 14,2 °C 50 % 71 % 1023,5 hPa 0,0 l/m² 0,3 km/h (0 Bft) W 9,1 °C 14,2 °C
11.06.2015 03:00 22,3 °C 14,1 °C 50 % 71 % 1023,3 hPa 0,0 l/m² 0,3 km/h (0 Bft) W-NW 8,9 °C 14,1 °C
11.06.2015 04:00 22,2 °C 14,0 °C 50 % 70 % 1023,2 hPa 0,0 l/m² 0,3 km/h (0 Bft) W 8,7 °C 14,0 °C
11.06.2015 05:00 22,2 °C 13,7 °C 50 % 72 % 1023,1 hPa 0,0 l/m² 0,0 km/h (0 Bft) O-NO 8,7 °C 13,7 °C
11.06.2015 06:00 22,2 °C 14,4 °C 50 % 71 % 1023,0 hPa 0,0 l/m² 0,5 km/h (0 Bft) NO 9,3 °C 14,4 °C
11.06.2015 07:00 22,1 °C 15,9 °C 49 % 67 % 1023,0 hPa 0,0 l/m² 3,3 km/h (1 Bft) O-NO 9,7 °C 15,9 °C
11.06.2015 08:00 22,2 °C 17,8 °C 50 % 62 % 1022,8 hPa 0,0 l/m² 4,6 km/h (1 Bft) O-NO 10,5 °C 17,6 °C
11.06.2015 09:00 22,2 °C 18,9 °C 50 % 59 % 1022,6 hPa 0,0 l/m² 2,8 km/h (1 Bft) NO 10,7 °C 18,8 °C
11.06.2015 10:00 22,3 °C 21,2 °C 50 % 51 % 1022,1 hPa 0,0 l/m² 6,1 km/h (2 Bft) O-NO 10,6 °C 20,7 °C
11.06.2015 11:00 22,4 °C 22,0 °C 50 % 47 % 1021,7 hPa 0,0 l/m² 4,7 km/h (1 Bft) NO 10,0 °C 21,8 °C
11.06.2015 12:00 22,4 °C 21,3 °C 50 % 47 % 1021,4 hPa 0,0 l/m² 4,7 km/h (1 Bft) NO 9,6 °C 21,1 °C
11.06.2015 13:00 22,4 °C 21,1 °C 50 % 48 % 1021,1 hPa 0,0 l/m² 4,5 km/h (1 Bft) N-NO 9,7 °C 20,9 °C
11.06.2015 14:00 22,4 °C 21,5 °C 50 % 47 % 1020,6 hPa 0,0 l/m² 4,0 km/h (1 Bft) N 9,7 °C 21,3 °C
11.06.2015 15:00 22,4 °C 22,5 °C 50 % 47 % 1020,1 hPa 0,0 l/m² 7,1 km/h (2 Bft) SO 10,5 °C 22,0 °C
11.06.2015 16:00 22,5 °C 23,2 °C 50 % 44 % 1019,5 hPa 0,0 l/m² 9,1 km/h (2 Bft) O-SO 10,3 °C 22,4 °C
11.06.2015 17:00 22,5 °C 22,3 °C 50 % 49 % 1018,9 hPa 0,0 l/m² 11,8 km/h (2 Bft) SO 10,9 °C 20,7 °C
11.06.2015 18:00 22,6 °C 22,3 °C 51 % 48 % 1018,3 hPa 0,0 l/m² 10,9 km/h (2 Bft) O-SO 10,8 °C 21,1 °C
11.06.2015 19:00 22,7 °C 21,3 °C 51 % 50 % 1017,8 hPa 0,0 l/m² 6,4 km/h (2 Bft) O-SO 10,5 °C 21,0 °C
11.06.2015 20:00 22,6 °C 19,3 °C 51 % 56 % 1017,6 hPa 0,0 l/m² 3,6 km/h (1 Bft) O-SO 10,2 °C 19,3 °C
11.06.2015 21:00 22,8 °C 18,0 °C 51 % 61 % 1017,6 hPa 0,0 l/m² 2,0 km/h (1 Bft) O 10,3 °C 18,0 °C
11.06.2015 22:00 23,1 °C 16,6 °C 51 % 65 % 1017,4 hPa 0,0 l/m² 0,0 km/h (0 Bft) NO 10,0 °C 16,6 °C
11.06.2015 23:00 22,9 °C 15,7 °C 51 % 70 % 1017,1 hPa 0,0 l/m² 1,3 km/h (1 Bft) O-SO 10,2 °C 15,7 °C
12.06.2015 00:00 22,6 °C 14,2 °C 51 % 73 % 1016,8 hPa 0,0 l/m² 0,7 km/h (0 Bft) W-NW 9,5 °C 14,2 °C
12.06.2015 01:00 22,5 °C 13,3 °C 51 % 77 % 1016,4 hPa 0,0 l/m² 0,3 km/h (0 Bft) SO 9,3 °C 13,3 °C
12.06.2015 02:00 22,4 °C 13,2 °C 51 % 79 % 1016,0 hPa 0,0 l/m² 1,0 km/h (0 Bft) O 9,6 °C 13,2 °C
12.06.2015 03:00 22,3 °C 12,5 °C 51 % 81 % 1015,6 hPa 0,0 l/m² 1,0 km/h (0 Bft) SO 9,3 °C 12,5 °C
12.06.2015 04:00 22,3 °C 12,0 °C 51 % 83 % 1015,2 hPa 0,0 l/m² 1,5 km/h (1 Bft) SO 9,2 °C 12,0 °C
12.06.2015 05:00 22,2 °C 11,4 °C 51 % 84 % 1015,3 hPa 0,0 l/m² 0,0 km/h (0 Bft) NO 8,8 °C 11,4 °C
12.06.2015 06:00 22,1 °C 12,4 °C 51 % 86 % 1015,3 hPa 0,0 l/m² 0,0 km/h (0 Bft) W-SW 10,1 °C 12,4 °C
12.06.2015 07:00 21,9 °C 16,0 °C 52 % 82 % 1015,1 hPa 0,0 l/m² 3,6 km/h (1 Bft) O-SO 13,0 °C 15,9 °C
12.06.2015 08:00 22,0 °C 18,8 °C 52 % 74 % 1014,7 hPa 0,0 l/m² 5,7 km/h (2 Bft) O-SO 14,0 °C 18,5 °C
12.06.2015 09:00 22,0 °C 20,6 °C 52 % 69 % 1014,5 hPa 0,0 l/m² 5,8 km/h (2 Bft) O 14,8 °C 20,3 °C
12.06.2015 10:00 22,0 °C 22,1 °C 52 % 64 % 1014,0 hPa 0,0 l/m² 8,4 km/h (2 Bft) O-SO 15,1 °C 21,4 °C
12.06.2015 11:00 22,0 °C 23,8 °C 52 % 59 % 1013,5 hPa 0,0 l/m² 8,8 km/h (2 Bft) O-SO 15,2 °C 23,1 °C
12.06.2015 12:00 22,0 °C 25,2 °C 52 % 55 % 1013,0 hPa 0,0 l/m² 7,1 km/h (2 Bft) O-NO 15,5 °C 24,8 °C
12.06.2015 13:00 22,1 °C 26,5 °C 52 % 52 % 1012,3 hPa 0,0 l/m² 6,4 km/h (2 Bft) O-SO 15,8 °C 26,2 °C
12.06.2015 14:00 22,1 °C 27,4 °C 52 % 50 % 1011,7 hPa 0,0 l/m² 5,0 km/h (1 Bft) SO 16,1 °C 27,2 °C
12.06.2015 15:00 22,2 °C 27,3 °C 52 % 49 % 1011,2 hPa 0,0 l/m² 3,4 km/h (1 Bft) N-NW 15,7 °C 27,2 °C
12.06.2015 16:00 22,4 °C 29,4 °C 52 % 44 % 1010,7 hPa 0,0 l/m² 3,5 km/h (1 Bft) W-NW 15,8 °C 29,3 °C
12.06.2015 17:00 22,5 °C 29,9 °C 52 % 43 % 1009,9 hPa 0,0 l/m² 3,0 km/h (1 Bft) NW 15,8 °C 29,9 °C
12.06.2015 18:00 22,6 °C 30,4 °C 52 % 43 % 1009,3 hPa 0,0 l/m² 2,6 km/h (1 Bft) O-SO 16,3 °C 30,4 °C
12.06.2015 19:00 22,6 °C 29,4 °C 53 % 45 % 1009,1 hPa 0,0 l/m² 1,7 km/h (1 Bft) S-SO 16,4 °C 29,4 °C
12.06.2015 20:00 22,8 °C 25,6 °C 53 % 53 % 1009,1 hPa 0,0 l/m² 4,9 km/h (1 Bft) O 15,4 °C 25,6 °C
12.06.2015 21:00 22,7 °C 22,4 °C 53 % 60 % 1009,2 hPa 0,0 l/m² 2,8 km/h (1 Bft) O-NO 14,3 °C 22,4 °C
12.06.2015 22:00 22,9 °C 19,3 °C 55 % 69 % 1009,7 hPa 0,0 l/m² 0,0 km/h (0 Bft) SO 13,5 °C 19,3 °C
12.06.2015 23:00 22,9 °C 17,2 °C 54 % 74 % 1009,7 hPa 0,0 l/m² 0,0 km/h (0 Bft) W 12,5 °C 17,2 °C
13.06.2015 00:00 22,8 °C 16,0 °C 54 % 78 % 1009,6 hPa 0,0 l/m² 0,0 km/h (0 Bft) W-SW 12,1 °C 16,0 °C
13.06.2015 01:00 22,7 °C 15,1 °C 54 % 80 % 1009,5 hPa 0,0 l/m² 0,0 km/h (0 Bft) W-SW 11,6 °C 15,1 °C
13.06.2015 02:00 22,6 °C 14,2 °C 54 % 81 % 1009,3 hPa 0,0 l/m² 0,0 km/h (0 Bft) W-SW 11,0 °C 14,2 °C
13.06.2015 03:00 22,6 °C 13,6 °C 54 % 83 % 1008,8 hPa 0,0 l/m² 0,0 km/h (0 Bft) W 10,8 °C 13,6 °C
13.06.2015 04:00 22,6 °C 13,1 °C 54 % 84 % 1008,6 hPa 0,0 l/m² 0,0 km/h (0 Bft) W 10,6 °C 13,1 °C
13.06.2015 05:00 22,5 °C 13,1 °C 54 % 86 % 1008,5 hPa 0,0 l/m² 0,0 km/h (0 Bft) W 10,8 °C 13,1 °C
13.06.2015 06:00 22,4 °C 14,6 °C 54 % 87 % 1008,6 hPa 0,0 l/m² 0,0 km/h (0 Bft) N-NW 12,5 °C 14,6 °C
13.06.2015 07:00 22,4 °C 18,2 °C 54 % 84 % 1008,5 hPa 0,0 l/m² 0,0 km/h (0 Bft) SO 15,5 °C 18,2 °C
13.06.2015 08:00 22,5 °C 21,7 °C 58 % 78 % 1008,4 hPa 0,0 l/m² 0,0 km/h (0 Bft) S-SO 17,7 °C 21,7 °C
13.06.2015 09:00 22,7 °C 24,4 °C 58 % 71 % 1008,3 hPa 0,0 l/m² 0,0 km/h (0 Bft) O-SO 18,8 °C 24,4 °C
13.06.2015 10:00 23,0 °C 26,3 °C 58 % 66 % 1008,2 hPa 0,0 l/m² 1,2 km/h (1 Bft) SO 19,5 °C 26,2 °C
13.06.2015 11:00 23,0 °C 26,5 °C 60 % 65 % 1008,1 hPa 0,0 l/m² 8,1 km/h (2 Bft) SW 19,5 °C 26,1 °C
13.06.2015 12:00 23,1 °C 25,9 °C 61 % 65 % 1008,0 hPa 0,0 l/m² 3,3 km/h (1 Bft) S 18,8 °C 25,8 °C
13.06.2015 13:00 23,3 °C 28,4 °C 60 % 58 % 1007,5 hPa 0,0 l/m² 4,3 km/h (1 Bft) SO 19,2 °C 28,3 °C
13.06.2015 14:00 23,4 °C 29,0 °C 59 % 52 % 1006,9 hPa 0,0 l/m² 7,4 km/h (2 Bft) S-SO 18,1 °C 28,8 °C
13.06.2015 15:00 23,3 °C 27,9 °C 59 % 58 % 1006,3 hPa 0,0 l/m² 7,7 km/h (2 Bft) S 18,8 °C 27,7 °C
13.06.2015 16:00 23,3 °C 26,5 °C 58 % 62 % 1006,5 hPa 0,0 l/m² 8,4 km/h (2 Bft) W-SW 18,7 °C 26,1 °C
13.06.2015 17:00 23,3 °C 23,8 °C 60 % 73 % 1006,9 hPa 0,0 l/m² 2,9 km/h (1 Bft) S-SW 18,7 °C 23,8 °C
13.06.2015 18:00 23,5 °C 22,9 °C 61 % 79 % 1007,0 hPa 0,0 l/m² 3,7 km/h (1 Bft) S 19,0 °C 22,8 °C
13.06.2015 19:00 23,6 °C 21,7 °C 64 % 83 % 1007,6 hPa 3,1 l/m² 5,2 km/h (1 Bft) SO 18,7 °C 21,5 °C
13.06.2015 20:00 23,6 °C 20,7 °C 63 % 85 % 1008,0 hPa 0,0 l/m² 1,8 km/h (1 Bft) O 18,2 °C 20,7 °C
13.06.2015 21:00 23,7 °C 19,9 °C 65 % 86 % 1008,5 hPa 0,0 l/m² 0,6 km/h (0 Bft) O 17,5 °C 19,9 °C
13.06.2015 22:00 24,0 °C 18,1 °C 63 % 87 % 1009,1 hPa 0,0 l/m² 2,6 km/h (1 Bft) W-NW 15,8 °C 18,1 °C
13.06.2015 23:00 23,8 °C 15,9 °C 62 % 87 % 1009,0 hPa 0,0 l/m² 0,1 km/h (0 Bft) O-NO 13,7 °C 15,9 °C
14.06.2015 00:00 23,5 °C 14,6 °C 61 % 88 % 1009,4 hPa 0,0 l/m² 0,3 km/h (0 Bft) O 12,6 °C 14,6 °C
14.06.2015 01:00 23,3 °C 13,7 °C 60 % 88 % 1009,4 hPa 0,0 l/m² 0,0 km/h (0 Bft) O-NO 11,8 °C 13,7 °C
14.06.2015 02:00 23,2 °C 13,0 °C 60 % 89 % 1009,3 hPa 0,0 l/m² 0,0 km/h (0 Bft) O-NO 11,2 °C 13,0 °C
14.06.2015 03:00 23,1 °C 12,3 °C 59 % 89 % 1009,3 hPa 0,0 l/m² 0,0 km/h (0 Bft) O-NO 10,6 °C 12,3 °C
14.06.2015 04:00 23,0 °C 11,7 °C 58 % 90 % 1009,4 hPa 0,0 l/m² 0,0 km/h (0 Bft) O-NO 10,0 °C 11,7 °C
14.06.2015 05:00 22,9 °C 11,1 °C 58 % 90 % 1009,3 hPa 0,0 l/m² 0,0 km/h (0 Bft) O-NO 9,5 °C 11,1 °C
14.06.2015 06:00 22,8 °C 12,3 °C 57 % 91 % 1009,6 hPa 0,0 l/m² 0,0 km/h (0 Bft) NO 10,9 °C 12,3 °C
14.06.2015 07:00 22,7 °C 16,0 °C 57 % 91 % 1009,6 hPa 0,0 l/m² 0,0 km/h (0 Bft) O 14,5 °C 16,0 °C
14.06.2015 08:00 22,8 °C 18,5 °C 58 % 80 % 1010,0 hPa 0,0 l/m² 7,8 km/h (2 Bft) W-SW 15,1 °C 17,3 °C
14.06.2015 09:00 22,9 °C 20,1 °C 57 % 69 % 1010,2 hPa 0,0 l/m² 12,5 km/h (2 Bft) W 14,2 °C 18,1 °C
14.06.2015 10:00 23,0 °C 22,1 °C 57 % 59 % 1010,0 hPa 0,0 l/m² 11,7 km/h (2 Bft) W-SW 13,6 °C 20,6 °C
14.06.2015 11:00 23,2 °C 23,6 °C 57 % 52 % 1009,8 hPa 0,0 l/m² 10,4 km/h (2 Bft) W-SW 13,0 °C 22,5 °C
14.06.2015 12:00 23,4 °C 24,5 °C 57 % 49 % 1009,5 hPa 0,0 l/m² 6,8 km/h (2 Bft) N-NW 13,0 °C 24,0 °C
14.06.2015 13:00 23,4 °C 24,6 °C 57 % 51 % 1009,5 hPa 0,0 l/m² 6,2 km/h (2 Bft) NW 13,8 °C 24,4 °C
14.06.2015 14:00 23,4 °C 24,1 °C 56 % 54 % 1009,5 hPa 0,0 l/m² 8,8 km/h (2 Bft) N 14,1 °C 23,3 °C
14.06.2015 15:00 23,3 °C 24,3 °C 56 % 55 % 1009,3 hPa 0,0 l/m² 11,1 km/h (2 Bft) N 14,7 °C 23,3 °C
14.06.2015 16:00 23,3 °C 23,2 °C 56 % 58 % 1009,5 hPa 0,0 l/m² 11,7 km/h (2 Bft) NW 14,5 °C 21,9 °C
14.06.2015 17:00 23,3 °C 22,8 °C 56 % 58 % 1009,2 hPa 0,0 l/m² 9,2 km/h (2 Bft) N-NW 14,1 °C 21,9 °C
14.06.2015 18:00 23,2 °C 22,6 °C 56 % 58 % 1009,1 hPa 0,0 l/m² 10,8 km/h (2 Bft) N 13,8 °C 21,4 °C
14.06.2015 19:00 23,3 °C 21,3 °C 56 % 61 % 1008,9 hPa 0,0 l/m² 12,3 km/h (2 Bft) N 13,5 °C 19,5 °C
14.06.2015 20:00 23,5 °C 19,5 °C 57 % 66 % 1009,1 hPa 0,0 l/m² 8,8 km/h (2 Bft) N 13,0 °C 18,4 °C
14.06.2015 21:00 23,8 °C 17,6 °C 59 % 71 % 1010,3 hPa 0,0 l/m² 4,5 km/h (1 Bft) N 12,3 °C 17,3 °C
14.06.2015 22:00 24,0 °C 15,3 °C 58 % 76 % 1011,2 hPa 0,0 l/m² 1,2 km/h (1 Bft) N 11,2 °C 15,3 °C
14.06.2015 23:00 23,7 °C 13,3 °C 57 % 78 % 1011,4 hPa 0,0 l/m² 0,4 km/h (0 Bft) N 9,5 °C 13,3 °C
Min-Datum _ 12.06.15 08.06.15 08.06.15 10.06.15 13.06.15 - 14.06.15 - 09.06.15 08.06.15
_ Min-Zeit 07:15 01:05 07:03 15:19 16:09 - 23:01 - 06:03 05:01
Minimum _ 21,8 °C 9,4 °C 47 % 39 % 1006,0 hPa - 0,0 km/h (0 Bft) - 5,6 °C 4,0 °C
Max-Datum _ 14.06.15 12.06.15 13.06.15 14.06.15 08.06.15 13.06.15 08.06.15 - 13.06.15 12.06.15
_ Max-Zeit 22:09 18:09 21:03 07:07 06:27 19:15 12:17 - 13:25 18:09
Maximum _ 24,1 °C 30,5 °C 65 % 92 % 1027,7 hPa 3,1 l/m² 27,7 km/h
N (5 Bft)
- 19,9 °C 30,5 °C
Durchschnitt _ 22,7 °C 18,1 °C 53 % 65 % 1018,4 hPa #3,1 l/m² 5,3 km/h (1 Bft) N 10,9 °C 17,5 °C
© 2009 Mathias Hoßbach